sensor_id;sensor_type;location;lat;lon;timestamp;pressure;altitude;pressure_sealevel;temperature;humidity
36828;BME280;22766;48.042;11.192;2024-01-15T00:00:34;93733.13;;;0.52;100.00
36828;BME280;22766;48.042;11.192;2024-01-15T00:03:01;93738.78;;;0.55;100.00
36828;BME280;22766;48.042;11.192;2024-01-15T00:05:28;93735.06;;;0.39;100.00
36828;BME280;22766;48.042;11.192;2024-01-15T00:07:54;93748.72;;;0.27;100.00
36828;BME280;22766;48.042;11.192;2024-01-15T00:10:21;93747.38;;;0.23;100.00
36828;BME280;22766;48.042;11.192;2024-01-15T00:12:48;93740.22;;;0.17;100.00
36828;BME280;22766;48.042;11.192;2024-01-15T00:15:15;93741.69;;;0.19;100.00
36828;BME280;22766;48.042;11.192;2024-01-15T00:17:42;93737.66;;;0.28;100.00
36828;BME280;22766;48.042;11.192;2024-01-15T00:20:09;93745.88;;;0.41;100.00
36828;BME280;22766;48.042;11.192;2024-01-15T00:22:36;93736.47;;;0.32;100.00
36828;BME280;22766;48.042;11.192;2024-01-15T00:25:03;93746.78;;;0.19;100.00
36828;BME280;22766;48.042;11.192;2024-01-15T00:27:30;93737.63;;;0.07;100.00
36828;BME280;22766;48.042;11.192;2024-01-15T00:29:57;93739.59;;;0.04;100.00
36828;BME280;22766;48.042;11.192;2024-01-15T00:32:24;93735.13;;;-0.04;100.00
36828;BME280;22766;48.042;11.192;2024-01-15T00:34:51;93739.50;;;-0.17;100.00
36828;BME280;22766;48.042;11.192;2024-01-15T00:37:18;93736.44;;;-0.32;100.00
36828;BME280;22766;48.042;11.192;2024-01-15T00:39:45;93733.44;;;-0.26;100.00
36828;BME280;22766;48.042;11.192;2024-01-15T00:42:15;93735.97;;;-0.26;100.00
36828;BME280;22766;48.042;11.192;2024-01-15T00:44:42;93742.47;;;-0.44;100.00
36828;BME280;22766;48.042;11.192;2024-01-15T00:47:09;93745.66;;;-0.31;100.00
36828;BME280;22766;48.042;11.192;2024-01-15T00:49:37;93752.69;;;-0.34;100.00
36828;BME280;22766;48.042;11.192;2024-01-15T00:52:08;93748.44;;;-0.45;100.00
36828;BME280;22766;48.042;11.192;2024-01-15T00:54:35;93747.06;;;-0.49;100.00
36828;BME280;22766;48.042;11.192;2024-01-15T00:57:02;93752.50;;;-0.53;100.00
36828;BME280;22766;48.042;11.192;2024-01-15T00:59:29;93753.66;;;-0.57;100.00
36828;BME280;22766;48.042;11.192;2024-01-15T01:01:56;93761.25;;;-0.46;100.00
36828;BME280;22766;48.042;11.192;2024-01-15T01:04:23;93755.03;;;-0.42;100.00
36828;BME280;22766;48.042;11.192;2024-01-15T01:06:50;93754.56;;;-0.47;100.00
36828;BME280;22766;48.042;11.192;2024-01-15T01:09:17;93758.84;;;-0.48;100.00
36828;BME280;22766;48.042;11.192;2024-01-15T01:11:44;93760.78;;;-0.51;100.00
36828;BME280;22766;48.042;11.192;2024-01-15T01:14:11;93768.75;;;-0.56;100.00
36828;BME280;22766;48.042;11.192;2024-01-15T01:16:37;93756.06;;;-0.56;100.00
36828;BME280;22766;48.042;11.192;2024-01-15T01:19:06;93759.75;;;-0.71;100.00
36828;BME280;22766;48.042;11.192;2024-01-15T01:21:34;93756.53;;;-0.84;100.00
36828;BME280;22766;48.042;11.192;2024-01-15T01:24:01;93756.44;;;-0.93;100.00
36828;BME280;22766;48.042;11.192;2024-01-15T01:26:28;93778.28;;;-1.04;100.00
36828;BME280;22766;48.042;11.192;2024-01-15T01:28:54;93781.13;;;-1.19;100.00
36828;BME280;22766;48.042;11.192;2024-01-15T01:31:23;93783.88;;;-1.33;100.00
36828;BME280;22766;48.042;11.192;2024-01-15T01:33:50;93793.06;;;-1.32;100.00
36828;BME280;22766;48.042;11.192;2024-01-15T01:36:17;93788.31;;;-1.48;100.00
36828;BME280;22766;48.042;11.192;2024-01-15T01:38:45;93794.72;;;-1.55;100.00
36828;BME280;22766;48.042;11.192;2024-01-15T01:41:11;93788.28;;;-1.59;100.00
36828;BME280;22766;48.042;11.192;2024-01-15T01:43:38;93794.47;;;-1.63;100.00
36828;BME280;22766;48.042;11.192;2024-01-15T01:46:05;93796.41;;;-1.66;100.00
36828;BME280;22766;48.042;11.192;2024-01-15T01:48:32;93787.78;;;-1.75;100.00
36828;BME280;22766;48.042;11.192;2024-01-15T01:51:00;93790.19;;;-1.73;100.00
36828;BME280;22766;48.042;11.192;2024-01-15T01:53:29;93781.50;;;-1.82;100.00
36828;BME280;22766;48.042;11.192;2024-01-15T01:55:58;93778.75;;;-1.90;100.00
36828;BME280;22766;48.042;11.192;2024-01-15T01:58:25;93781.72;;;-2.09;100.00
36828;BME280;22766;48.042;11.192;2024-01-15T02:00:53;93790.44;;;-2.13;100.00
36828;BME280;22766;48.042;11.192;2024-01-15T02:03:20;93788.44;;;-2.20;100.00
36828;BME280;22766;48.042;11.192;2024-01-15T02:05:48;93789.13;;;-2.42;100.00
36828;BME280;22766;48.042;11.192;2024-01-15T02:08:16;93794.47;;;-2.34;100.00
36828;BME280;22766;48.042;11.192;2024-01-15T02:10:43;93788.03;;;-2.14;100.00
36828;BME280;22766;48.042;11.192;2024-01-15T02:13:10;93790.97;;;-2.20;100.00
36828;BME280;22766;48.042;11.192;2024-01-15T02:15:37;93800.25;;;-2.08;100.00
36828;BME280;22766;48.042;11.192;2024-01-15T02:18:05;93798.88;;;-2.01;100.00
36828;BME280;22766;48.042;11.192;2024-01-15T02:20:33;93808.38;;;-1.92;100.00
36828;BME280;22766;48.042;11.192;2024-01-15T02:23:15;93808.81;;;-1.98;100.00
36828;BME280;22766;48.042;11.192;2024-01-15T02:25:46;93807.16;;;-1.86;100.00
36828;BME280;22766;48.042;11.192;2024-01-15T02:28:16;93809.75;;;-1.88;100.00
36828;BME280;22766;48.042;11.192;2024-01-15T02:30:44;93811.00;;;-1.94;100.00
36828;BME280;22766;48.042;11.192;2024-01-15T02:33:11;93821.56;;;-1.76;100.00
36828;BME280;22766;48.042;11.192;2024-01-15T02:35:39;93816.06;;;-1.94;100.00
36828;BME280;22766;48.042;11.192;2024-01-15T02:38:07;93817.53;;;-2.02;100.00
36828;BME280;22766;48.042;11.192;2024-01-15T02:40:34;93821.41;;;-2.09;100.00
36828;BME280;22766;48.042;11.192;2024-01-15T02:43:01;93814.41;;;-2.06;100.00
36828;BME280;22766;48.042;11.192;2024-01-15T02:45:28;93820.75;;;-2.00;100.00
36828;BME280;22766;48.042;11.192;2024-01-15T02:47:55;93817.88;;;-1.96;100.00
36828;BME280;22766;48.042;11.192;2024-01-15T02:50:22;93825.84;;;-1.89;100.00
36828;BME280;22766;48.042;11.192;2024-01-15T02:52:49;93818.72;;;-1.71;100.00
36828;BME280;22766;48.042;11.192;2024-01-15T02:55:16;93819.38;;;-1.80;100.00
36828;BME280;22766;48.042;11.192;2024-01-15T02:57:43;93825.22;;;-2.04;100.00
36828;BME280;22766;48.042;11.192;2024-01-15T03:00:10;93826.13;;;-2.05;100.00
36828;BME280;22766;48.042;11.192;2024-01-15T03:02:39;93825.47;;;-2.19;100.00
36828;BME280;22766;48.042;11.192;2024-01-15T03:05:11;93825.56;;;-2.21;100.00
36828;BME280;22766;48.042;11.192;2024-01-15T03:07:38;93819.16;;;-2.14;100.00
36828;BME280;22766;48.042;11.192;2024-01-15T03:10:05;93827.50;;;-2.24;100.00
36828;BME280;22766;48.042;11.192;2024-01-15T03:12:32;93819.00;;;-2.23;100.00
36828;BME280;22766;48.042;11.192;2024-01-15T03:14:59;93822.28;;;-2.34;100.00
36828;BME280;22766;48.042;11.192;2024-01-15T03:17:26;93825.16;;;-2.27;100.00
36828;BME280;22766;48.042;11.192;2024-01-15T03:19:53;93818.63;;;-2.42;100.00
36828;BME280;22766;48.042;11.192;2024-01-15T03:22:21;93812.72;;;-2.18;100.00
36828;BME280;22766;48.042;11.192;2024-01-15T03:24:47;93817.13;;;-2.09;100.00
36828;BME280;22766;48.042;11.192;2024-01-15T03:27:14;93813.88;;;-1.98;100.00
36828;BME280;22766;48.042;11.192;2024-01-15T03:29:41;93808.28;;;-1.91;100.00
36828;BME280;22766;48.042;11.192;2024-01-15T03:32:08;93816.56;;;-1.88;100.00
36828;BME280;22766;48.042;11.192;2024-01-15T03:34:34;93814.13;;;-2.14;100.00
36828;BME280;22766;48.042;11.192;2024-01-15T03:37:02;93815.53;;;-2.10;100.00
36828;BME280;22766;48.042;11.192;2024-01-15T03:39:28;93818.34;;;-2.02;100.00
36828;BME280;22766;48.042;11.192;2024-01-15T03:41:55;93818.06;;;-2.10;100.00
36828;BME280;22766;48.042;11.192;2024-01-15T03:44:24;93814.41;;;-2.06;100.00
36828;BME280;22766;48.042;11.192;2024-01-15T03:46:51;93806.59;;;-2.03;100.00
36828;BME280;22766;48.042;11.192;2024-01-15T03:49:18;93806.94;;;-2.07;100.00
36828;BME280;22766;48.042;11.192;2024-01-15T03:51:45;93803.78;;;-2.11;100.00
36828;BME280;22766;48.042;11.192;2024-01-15T03:54:12;93812.34;;;-2.24;100.00
36828;BME280;22766;48.042;11.192;2024-01-15T03:56:39;93815.94;;;-2.16;100.00
36828;BME280;22766;48.042;11.192;2024-01-15T03:59:06;93800.91;;;-2.30;100.00
36828;BME280;22766;48.042;11.192;2024-01-15T04:01:32;93805.13;;;-2.18;100.00
36828;BME280;22766;48.042;11.192;2024-01-15T04:03:59;93790.91;;;-2.31;100.00
36828;BME280;22766;48.042;11.192;2024-01-15T04:06:26;93794.13;;;-2.29;100.00
36828;BME280;22766;48.042;11.192;2024-01-15T04:08:53;93792.34;;;-2.04;100.00
36828;BME280;22766;48.042;11.192;2024-01-15T04:11:20;93796.59;;;-2.04;100.00
36828;BME280;22766;48.042;11.192;2024-01-15T04:13:47;93791.22;;;-2.00;100.00
36828;BME280;22766;48.042;11.192;2024-01-15T04:16:13;93784.94;;;-2.07;100.00
36828;BME280;22766;48.042;11.192;2024-01-15T04:18:40;93789.47;;;-1.99;100.00
36828;BME280;22766;48.042;11.192;2024-01-15T04:21:07;93799.41;;;-2.09;100.00
36828;BME280;22766;48.042;11.192;2024-01-15T04:23:34;93799.97;;;-1.93;100.00
36828;BME280;22766;48.042;11.192;2024-01-15T04:26:01;93791.56;;;-1.93;100.00
36828;BME280;22766;48.042;11.192;2024-01-15T04:28:27;93793.66;;;-2.11;100.00
36828;BME280;22766;48.042;11.192;2024-01-15T04:30:54;93798.88;;;-2.01;100.00
36828;BME280;22766;48.042;11.192;2024-01-15T04:33:21;93806.88;;;-1.95;100.00
36828;BME280;22766;48.042;11.192;2024-01-15T04:35:49;93805.25;;;-2.19;100.00
36828;BME280;22766;48.042;11.192;2024-01-15T04:38:16;93803.88;;;-2.36;100.00
36828;BME280;22766;48.042;11.192;2024-01-15T04:40:42;93799.91;;;-2.27;100.00
36828;BME280;22766;48.042;11.192;2024-01-15T04:43:09;93805.13;;;-2.18;100.00
36828;BME280;22766;48.042;11.192;2024-01-15T04:45:36;93805.16;;;-2.30;100.00
36828;BME280;22766;48.042;11.192;2024-01-15T04:48:03;93808.56;;;-1.95;100.00
36828;BME280;22766;48.042;11.192;2024-01-15T04:50:30;93801.81;;;-1.95;100.00
36828;BME280;22766;48.042;11.192;2024-01-15T04:52:57;93787.91;;;-2.13;100.00
36828;BME280;22766;48.042;11.192;2024-01-15T04:55:24;93786.03;;;-2.22;100.00
36828;BME280;22766;48.042;11.192;2024-01-15T04:57:51;93779.38;;;-2.23;100.00
36828;BME280;22766;48.042;11.192;2024-01-15T05:00:18;93781.72;;;-2.09;100.00
36828;BME280;22766;48.042;11.192;2024-01-15T05:02:44;93791.66;;;-2.18;100.00
36828;BME280;22766;48.042;11.192;2024-01-15T05:05:11;93781.88;;;-1.99;100.00
36828;BME280;22766;48.042;11.192;2024-01-15T05:07:39;93775.19;;;-2.11;100.00
36828;BME280;22766;48.042;11.192;2024-01-15T05:10:06;93779.53;;;-1.90;100.00
36828;BME280;22766;48.042;11.192;2024-01-15T05:12:34;93788.56;;;-1.98;100.00
36828;BME280;22766;48.042;11.192;2024-01-15T05:15:01;93795.03;;;-1.94;100.00
36828;BME280;22766;48.042;11.192;2024-01-15T05:17:28;93789.88;;;-1.93;100.00
36828;BME280;22766;48.042;11.192;2024-01-15T05:19:55;93786.16;;;-2.00;100.00
36828;BME280;22766;48.042;11.192;2024-01-15T05:22:22;93792.53;;;-2.07;100.00
36828;BME280;22766;48.042;11.192;2024-01-15T05:24:51;93795.97;;;-1.84;100.00
36828;BME280;22766;48.042;11.192;2024-01-15T05:27:18;93795.94;;;-1.95;100.00
36828;BME280;22766;48.042;11.192;2024-01-15T05:29:45;93806.97;;;-1.96;100.00
36828;BME280;22766;48.042;11.192;2024-01-15T05:32:13;93795.34;;;-1.99;100.00
36828;BME280;22766;48.042;11.192;2024-01-15T05:34:39;93802.72;;;-1.96;100.00
36828;BME280;22766;48.042;11.192;2024-01-15T05:37:06;93794.06;;;-2.04;100.00
36828;BME280;22766;48.042;11.192;2024-01-15T05:39:33;93793.75;;;-2.00;100.00
36828;BME280;22766;48.042;11.192;2024-01-15T05:42:00;93795.56;;;-2.02;100.00
36828;BME280;22766;48.042;11.192;2024-01-15T05:44:27;93791.63;;;-2.06;100.00
36828;BME280;22766;48.042;11.192;2024-01-15T05:46:53;93790.53;;;-2.14;100.00
36828;BME280;22766;48.042;11.192;2024-01-15T05:49:21;93799.97;;;-1.93;100.00
36828;BME280;22766;48.042;11.192;2024-01-15T05:51:48;93789.28;;;-1.96;100.00
36828;BME280;22766;48.042;11.192;2024-01-15T05:54:15;93779.28;;;-1.98;100.00
36828;BME280;22766;48.042;11.192;2024-01-15T05:56:42;93793.75;;;-2.00;100.00
36828;BME280;22766;48.042;11.192;2024-01-15T05:59:09;93790.59;;;-2.03;100.00
36828;BME280;22766;48.042;11.192;2024-01-15T06:01:41;93785.13;;;-1.97;100.00
36828;BME280;22766;48.042;11.192;2024-01-15T06:04:08;93785.72;;;-1.94;100.00
36828;BME280;22766;48.042;11.192;2024-01-15T06:06:35;93780.66;;;-1.94;100.00
36828;BME280;22766;48.042;11.192;2024-01-15T06:09:02;93785.22;;;-1.99;100.00
36828;BME280;22766;48.042;11.192;2024-01-15T06:11:32;93779.19;;;-2.09;100.00
36828;BME280;22766;48.042;11.192;2024-01-15T06:13:59;93776.13;;;-2.01;100.00
36828;BME280;22766;48.042;11.192;2024-01-15T06:16:28;93781.00;;;-1.98;100.00
36828;BME280;22766;48.042;11.192;2024-01-15T06:18:55;93776.47;;;-2.06;100.00
36828;BME280;22766;48.042;11.192;2024-01-15T06:21:23;93781.47;;;-1.93;100.00
36828;BME280;22766;48.042;11.192;2024-01-15T06:23:49;93783.22;;;-2.30;100.00
36828;BME280;22766;48.042;11.192;2024-01-15T06:26:16;93786.72;;;-2.43;100.00
36828;BME280;22766;48.042;11.192;2024-01-15T06:28:43;93777.78;;;-2.36;100.00
36828;BME280;22766;48.042;11.192;2024-01-15T06:31:10;93785.25;;;-2.35;100.00
36828;BME280;22766;48.042;11.192;2024-01-15T06:33:37;93782.03;;;-2.37;100.00
36828;BME280;22766;48.042;11.192;2024-01-15T06:36:05;93781.78;;;-2.21;100.00
36828;BME280;22766;48.042;11.192;2024-01-15T06:38:32;93785.66;;;-2.28;100.00
36828;BME280;22766;48.042;11.192;2024-01-15T06:41:00;93785.25;;;-2.35;100.00
36828;BME280;22766;48.042;11.192;2024-01-15T06:43:27;93781.22;;;-2.37;100.00
36828;BME280;22766;48.042;11.192;2024-01-15T06:45:53;93777.78;;;-2.36;100.00
36828;BME280;22766;48.042;11.192;2024-01-15T06:48:20;93778.38;;;-2.33;100.00
36828;BME280;22766;48.042;11.192;2024-01-15T06:50:47;93779.09;;;-2.31;100.00
36828;BME280;22766;48.042;11.192;2024-01-15T06:53:14;93779.91;;;-2.30;100.00
36828;BME280;22766;48.042;11.192;2024-01-15T06:55:41;93786.66;;;-2.31;100.00
36828;BME280;22766;48.042;11.192;2024-01-15T06:58:08;93776.19;;;-2.14;100.00
36828;BME280;22766;48.042;11.192;2024-01-15T07:00:35;93758.25;;;-2.11;100.00
36828;BME280;22766;48.042;11.192;2024-01-15T07:03:02;93757.22;;;-2.19;100.00
36828;BME280;22766;48.042;11.192;2024-01-15T07:05:29;93753.00;;;-2.31;100.00
36828;BME280;22766;48.042;11.192;2024-01-15T07:07:57;93767.75;;;-2.25;100.00
36828;BME280;22766;48.042;11.192;2024-01-15T07:10:24;93767.69;;;-2.13;100.00
36828;BME280;22766;48.042;11.192;2024-01-15T07:12:51;93764.72;;;-2.07;100.00
36828;BME280;22766;48.042;11.192;2024-01-15T07:15:17;93773.72;;;-2.26;100.00
36828;BME280;22766;48.042;11.192;2024-01-15T07:17:44;93762.78;;;-2.27;100.00
36828;BME280;22766;48.042;11.192;2024-01-15T07:20:11;93757.53;;;-2.00;100.00
36828;BME280;22766;48.042;11.192;2024-01-15T07:22:38;93755.59;;;-1.97;100.00
36828;BME280;22766;48.042;11.192;2024-01-15T07:25:05;93753.50;;;-1.68;100.00
36828;BME280;22766;48.042;11.192;2024-01-15T07:27:33;93770.75;;;-1.73;100.00
36828;BME280;22766;48.042;11.192;2024-01-15T07:30:00;93759.78;;;-1.84;100.00
36828;BME280;22766;48.042;11.192;2024-01-15T07:32:31;93752.75;;;-1.92;100.00
36828;BME280;22766;48.042;11.192;2024-01-15T07:34:58;93759.03;;;-1.98;100.00
36828;BME280;22766;48.042;11.192;2024-01-15T07:37:26;93754.94;;;-1.88;100.00
36828;BME280;22766;48.042;11.192;2024-01-15T07:39:52;93762.44;;;-2.10;100.00
36828;BME280;22766;48.042;11.192;2024-01-15T07:42:19;93767.66;;;-2.00;100.00
36828;BME280;22766;48.042;11.192;2024-01-15T07:44:46;93773.63;;;-1.66;100.00
36828;BME280;22766;48.042;11.192;2024-01-15T07:47:13;93772.53;;;-1.86;100.00
36828;BME280;22766;48.042;11.192;2024-01-15T07:49:40;93757.16;;;-1.48;100.00
36828;BME280;22766;48.042;11.192;2024-01-15T07:52:07;93762.09;;;-1.47;100.00
36828;BME280;22766;48.042;11.192;2024-01-15T07:54:34;93769.84;;;-1.26;100.00
36828;BME280;22766;48.042;11.192;2024-01-15T07:57:01;93761.78;;;-1.31;100.00
36828;BME280;22766;48.042;11.192;2024-01-15T07:59:31;93754.66;;;-1.15;100.00
36828;BME280;22766;48.042;11.192;2024-01-15T08:01:59;93758.13;;;-1.05;100.00
36828;BME280;22766;48.042;11.192;2024-01-15T08:04:26;93757.50;;;-1.31;100.00
36828;BME280;22766;48.042;11.192;2024-01-15T08:06:53;93759.97;;;-1.29;100.00
36828;BME280;22766;48.042;11.192;2024-01-15T08:09:20;93757.59;;;-1.54;100.00
36828;BME280;22766;48.042;11.192;2024-01-15T08:11:47;93757.94;;;-1.48;100.00
36828;BME280;22766;48.042;11.192;2024-01-15T08:14:15;93756.44;;;-1.50;100.00
36828;BME280;22766;48.042;11.192;2024-01-15T08:16:42;93750.91;;;-1.55;100.00
36828;BME280;22766;48.042;11.192;2024-01-15T08:19:10;93752.41;;;-1.53;100.00
36828;BME280;22766;48.042;11.192;2024-01-15T08:21:37;93746.22;;;-1.49;100.00
36828;BME280;22766;48.042;11.192;2024-01-15T08:24:04;93749.69;;;-1.39;100.00
36828;BME280;22766;48.042;11.192;2024-01-15T08:26:31;93753.53;;;-1.57;100.00
36828;BME280;22766;48.042;11.192;2024-01-15T08:28:59;93760.81;;;-1.52;100.00
36828;BME280;22766;48.042;11.192;2024-01-15T08:31:26;93761.56;;;-1.63;100.00
36828;BME280;22766;48.042;11.192;2024-01-15T08:33:53;93762.69;;;-1.67;100.00
36828;BME280;22766;48.042;11.192;2024-01-15T08:36:23;93756.69;;;-1.42;100.00
36828;BME280;22766;48.042;11.192;2024-01-15T08:38:52;93759.16;;;-1.19;100.00
36828;BME280;22766;48.042;11.192;2024-01-15T08:41:18;93756.28;;;-1.14;100.00
36828;BME280;22766;48.042;11.192;2024-01-15T08:43:45;93758.09;;;-1.27;100.00
36828;BME280;22766;48.042;11.192;2024-01-15T08:46:12;93757.78;;;-1.12;100.00
36828;BME280;22766;48.042;11.192;2024-01-15T08:48:39;93765.91;;;-1.30;100.00
36828;BME280;22766;48.042;11.192;2024-01-15T08:51:06;93766.06;;;-1.10;100.00
36828;BME280;22766;48.042;11.192;2024-01-15T08:53:35;93769.03;;;-1.16;100.00
36828;BME280;22766;48.042;11.192;2024-01-15T08:56:02;93760.44;;;-1.02;100.00
36828;BME280;22766;48.042;11.192;2024-01-15T08:58:28;93769.03;;;-1.16;100.00
36828;BME280;22766;48.042;11.192;2024-01-15T09:00:55;93761.56;;;-1.28;100.00
36828;BME280;22766;48.042;11.192;2024-01-15T09:03:22;93753.59;;;-1.35;100.00
36828;BME280;22766;48.042;11.192;2024-01-15T09:05:49;93759.16;;;-1.19;100.00
36828;BME280;22766;48.042;11.192;2024-01-15T09:08:16;93758.72;;;-1.13;100.00
36828;BME280;22766;48.042;11.192;2024-01-15T09:10:43;93765.63;;;-1.04;100.00
36828;BME280;22766;48.042;11.192;2024-01-15T09:13:10;93759.28;;;-0.98;100.00
36828;BME280;22766;48.042;11.192;2024-01-15T09:15:36;93756.75;;;-0.98;100.00
36828;BME280;22766;48.042;11.192;2024-01-15T09:18:03;93752.25;;;-1.06;100.00
36828;BME280;22766;48.042;11.192;2024-01-15T09:20:34;93756.75;;;-0.98;100.00
36828;BME280;22766;48.042;11.192;2024-01-15T09:23:01;93772.06;;;-0.77;100.00
36828;BME280;22766;48.042;11.192;2024-01-15T09:25:28;93772.88;;;-0.99;100.00
36828;BME280;22766;48.042;11.192;2024-01-15T09:27:55;93767.81;;;-0.88;100.00
36828;BME280;22766;48.042;11.192;2024-01-15T09:30:22;93768.97;;;-0.92;100.00
36828;BME280;22766;48.042;11.192;2024-01-15T09:32:48;93767.91;;;-1.01;100.00
36828;BME280;22766;48.042;11.192;2024-01-15T09:35:15;93769.78;;;-0.80;100.00
36828;BME280;22766;48.042;11.192;2024-01-15T09:37:42;93777.03;;;-0.87;100.00
36828;BME280;22766;48.042;11.192;2024-01-15T09:40:14;93772.06;;;-0.77;100.00
36828;BME280;22766;48.042;11.192;2024-01-15T09:42:42;93778.19;;;-0.80;100.00
36828;BME280;22766;48.042;11.192;2024-01-15T09:45:09;93769.91;;;-0.71;100.00
36828;BME280;22766;48.042;11.192;2024-01-15T09:47:36;93766.91;;;-0.65;100.00
36828;BME280;22766;48.042;11.192;2024-01-15T09:50:08;93762.53;;;-0.63;100.00
36828;BME280;22766;48.042;11.192;2024-01-15T09:52:36;93765.03;;;-0.74;100.00
36828;BME280;22766;48.042;11.192;2024-01-15T09:55:03;93773.00;;;-0.67;100.00
36828;BME280;22766;48.042;11.192;2024-01-15T09:57:32;93777.38;;;-0.80;100.00
36828;BME280;22766;48.042;11.192;2024-01-15T10:00:01;93776.94;;;-0.74;100.00
36828;BME280;22766;48.042;11.192;2024-01-15T10:02:31;93772.88;;;-0.77;100.00
36828;BME280;22766;48.042;11.192;2024-01-15T10:04:58;93773.91;;;-0.79;100.00
36828;BME280;22766;48.042;11.192;2024-01-15T10:07:26;93766.31;;;-0.79;100.00
36828;BME280;22766;48.042;11.192;2024-01-15T10:09:53;93761.25;;;-0.79;100.00
36828;BME280;22766;48.042;11.192;2024-01-15T10:12:21;93767.47;;;-1.06;100.00
36828;BME280;22766;48.042;11.192;2024-01-15T10:14:48;93758.03;;;-0.93;100.00
36828;BME280;22766;48.042;11.192;2024-01-15T10:17:17;93754.34;;;-0.88;100.00
36828;BME280;22766;48.042;11.192;2024-01-15T10:19:47;93745.22;;;-1.13;100.00
36828;BME280;22766;48.042;11.192;2024-01-15T10:22:16;93733.16;;;-0.99;100.00
36828;BME280;22766;48.042;11.192;2024-01-15T10:24:45;93727.25;;;-1.10;100.00
36828;BME280;22766;48.042;11.192;2024-01-15T10:27:15;93729.94;;;-0.89;100.00
36828;BME280;22766;48.042;11.192;2024-01-15T10:29:43;93723.13;;;-1.00;100.00
36828;BME280;22766;48.042;11.192;2024-01-15T10:32:11;93728.56;;;-1.05;100.00
36828;BME280;22766;48.042;11.192;2024-01-15T10:34:39;93725.09;;;-1.04;100.00
36828;BME280;22766;48.042;11.192;2024-01-15T10:37:10;93713.50;;;-0.95;100.00
36828;BME280;22766;48.042;11.192;2024-01-15T10:39:37;93707.47;;;-0.72;100.00
36828;BME280;22766;48.042;11.192;2024-01-15T10:42:05;93714.97;;;-0.93;100.00
36828;BME280;22766;48.042;11.192;2024-01-15T10:44:34;93697.59;;;-0.86;100.00
36828;BME280;22766;48.042;11.192;2024-01-15T10:47:01;93684.78;;;-0.73;100.00
36828;BME280;22766;48.042;11.192;2024-01-15T10:49:28;93677.25;;;-0.53;100.00
36828;BME280;22766;48.042;11.192;2024-01-15T10:52:01;93680.81;;;-0.44;100.00
36828;BME280;22766;48.042;11.192;2024-01-15T10:54:29;93682.09;;;-0.50;100.00
36828;BME280;22766;48.042;11.192;2024-01-15T10:56:56;93677.22;;;-0.42;100.00
36828;BME280;22766;48.042;11.192;2024-01-15T10:59:24;93674.25;;;-0.15;100.00
36828;BME280;22766;48.042;11.192;2024-01-15T11:01:51;93678.06;;;-0.21;100.00
36828;BME280;22766;48.042;11.192;2024-01-15T11:04:23;93677.47;;;-0.13;100.00
36828;BME280;22766;48.042;11.192;2024-01-15T11:06:55;93679.06;;;-0.01;100.00
36828;BME280;22766;48.042;11.192;2024-01-15T11:09:23;93670.06;;;-0.05;100.00
36828;BME280;22766;48.042;11.192;2024-01-15T11:12:11;93670.53;;;0.00;100.00
36828;BME280;22766;48.042;11.192;2024-01-15T11:17:05;93660.75;;;-0.05;100.00
36828;BME280;22766;48.042;11.192;2024-01-15T11:22:09;93665.63;;;0.29;100.00
36828;BME280;22766;48.042;11.192;2024-01-15T11:24:39;93676.50;;;0.51;100.00
36828;BME280;22766;48.042;11.192;2024-01-15T11:27:08;93677.22;;;0.42;100.00
36828;BME280;22766;48.042;11.192;2024-01-15T11:29:36;93666.03;;;0.24;100.00
36828;BME280;22766;48.042;11.192;2024-01-15T11:32:08;93674.13;;;0.39;100.00
36828;BME280;22766;48.042;11.192;2024-01-15T11:34:59;93660.69;;;0.27;100.00
36828;BME280;22766;48.042;11.192;2024-01-15T11:40:36;93652.25;;;0.27;100.00
36828;BME280;22766;48.042;11.192;2024-01-15T11:43:07;93652.31;;;0.16;100.00
36828;BME280;22766;48.042;11.192;2024-01-15T11:45:36;93647.50;;;-0.08;100.00
36828;BME280;22766;48.042;11.192;2024-01-15T11:48:15;93656.16;;;0.31;100.00
36828;BME280;22766;48.042;11.192;2024-01-15T11:53:16;93669.03;;;0.39;100.00
36828;BME280;22766;48.042;11.192;2024-01-15T11:55:45;93663.16;;;0.38;100.00
36828;BME280;22766;48.042;11.192;2024-01-15T11:58:12;93656.41;;;0.48;100.00
36828;BME280;22766;48.042;11.192;2024-01-15T12:00:40;93651.19;;;0.50;100.00
36828;BME280;22766;48.042;11.192;2024-01-15T12:03:09;93652.22;;;0.38;100.00
36828;BME280;22766;48.042;11.192;2024-01-15T12:05:39;93640.66;;;0.24;100.00
36828;BME280;22766;48.042;11.192;2024-01-15T12:08:08;93632.66;;;0.08;100.00
36828;BME280;22766;48.042;11.192;2024-01-15T12:10:40;93633.81;;;0.04;100.00
36828;BME280;22766;48.042;11.192;2024-01-15T12:15:44;93614.81;;;-0.22;100.00
36828;BME280;22766;48.042;11.192;2024-01-15T12:18:13;93613.81;;;-0.31;100.00
36828;BME280;22766;48.042;11.192;2024-01-15T12:20:41;93584.91;;;-0.39;100.00
36828;BME280;22766;48.042;11.192;2024-01-15T12:23:09;93601.81;;;-0.29;100.00
36828;BME280;22766;48.042;11.192;2024-01-15T12:25:37;93595.38;;;-0.33;100.00
36828;BME280;22766;48.042;11.192;2024-01-15T12:28:04;93588.09;;;-0.58;100.00
36828;BME280;22766;48.042;11.192;2024-01-15T12:30:33;93587.09;;;-0.35;100.00
36828;BME280;22766;48.042;11.192;2024-01-15T12:33:07;93579.34;;;-0.54;100.00
36828;BME280;22766;48.042;11.192;2024-01-15T12:35:36;93582.75;;;-0.44;100.00
36828;BME280;22766;48.042;11.192;2024-01-15T12:38:03;93581.25;;;-0.46;100.00
36828;BME280;22766;48.042;11.192;2024-01-15T12:40:32;93576.00;;;-0.34;100.00
36828;BME280;22766;48.042;11.192;2024-01-15T12:43:00;93571.56;;;-0.41;100.00
36828;BME280;22766;48.042;11.192;2024-01-15T12:45:27;93559.34;;;-0.16;100.00
36828;BME280;22766;48.042;11.192;2024-01-15T12:47:54;93565.91;;;1.17;100.00
36828;BME280;22766;48.042;11.192;2024-01-15T12:50:24;93564.19;;;1.37;100.00
36828;BME280;22766;48.042;11.192;2024-01-15T12:52:52;93575.69;;;1.41;100.00
36828;BME280;22766;48.042;11.192;2024-01-15T12:55:18;93565.56;;;2.35;100.00